Time;durP1;ratioP1;P1;durP2;ratioP2;P2;SDS_P1;SDS_P2;PMS_P1;PMS_P2;Temp;Humidity;BMP_temperature;BMP_pressure;BME280_temperature;BME280_humidity;BME280_pressure;Samples;Min_cycle;Max_cycle;Signal;HPM_P1;HPM_P2
2022/09/08 00:00:25;;;;;;;14.43;12.93;;;15.50;99.90;;;;;;5004685;28;20229;-78
2022/09/08 00:02:52;;;;;;;15.53;13.20;;;15.50;99.90;;;;;;5018551;28;20254;-78
2022/09/08 00:05:23;;;;;;;15.20;13.77;;;15.50;99.90;;;;;;5019659;28;20349;-78
2022/09/08 00:07:52;;;;;;;15.43;13.87;;;15.50;99.90;;;;;;5026881;28;20223;-79
2022/09/08 00:10:19;;;;;;;13.73;12.33;;;15.40;99.90;;;;;;5022371;28;20222;-79
2022/09/08 00:12:47;;;;;;;14.43;13.03;;;15.40;99.90;;;;;;5015689;28;20633;-77
2022/09/08 00:15:15;;;;;;;15.53;12.80;;;15.30;99.90;;;;;;5033628;28;20308;-79
2022/09/08 00:17:42;;;;;;;15.33;13.73;;;15.30;99.90;;;;;;5024225;28;20233;-79
2022/09/08 00:20:10;;;;;;;14.70;13.07;;;15.30;99.90;;;;;;5022700;28;20245;-79
2022/09/08 00:22:38;;;;;;;14.30;12.87;;;15.20;99.90;;;;;;5023858;28;20295;-79
2022/09/08 00:25:05;;;;;;;15.97;13.40;;;15.20;99.90;;;;;;5021572;28;20240;-79
2022/09/08 00:27:32;;;;;;;16.57;12.50;;;15.20;99.90;;;;;;5022441;28;20228;-79
2022/09/08 00:29:59;;;;;;;13.87;12.43;;;15.10;99.90;;;;;;5023304;28;20226;-79
2022/09/08 00:32:25;;;;;;;16.17;14.40;;;15.10;99.90;;;;;;5015788;28;20300;-77
2022/09/08 00:34:52;;;;;;;16.03;13.63;;;15.00;99.90;;;;;;5016840;28;20234;-78
2022/09/08 00:37:20;;;;;;;14.40;12.73;;;15.00;99.90;;;;;;5010073;28;20222;-78
2022/09/08 00:39:48;;;;;;;15.17;13.53;;;15.00;99.90;;;;;;5020523;28;20235;-79
2022/09/08 00:42:15;;;;;;;17.03;15.30;;;14.90;99.90;;;;;;5020133;28;20228;-78
2022/09/08 00:44:49;;;;;;;16.93;14.10;;;14.90;99.90;;;;;;5005190;28;20214;-78
2022/09/08 00:47:22;;;;;;;16.87;15.07;;;14.90;99.90;;;;;;5021644;28;20257;-78
2022/09/08 00:49:53;;;;;;;17.37;15.57;;;14.90;99.90;;;;;;5016747;28;20724;-78
2022/09/08 00:52:21;;;;;;;15.00;13.50;;;14.80;99.90;;;;;;5022605;28;20323;-79
2022/09/08 00:54:50;;;;;;;15.57;14.07;;;14.80;99.90;;;;;;5017769;28;20271;-77
2022/09/08 00:57:17;;;;;;;15.87;14.37;;;14.80;99.90;;;;;;5016864;28;20226;-78
2022/09/08 00:59:45;;;;;;;19.37;15.60;;;14.80;99.90;;;;;;5017128;28;20225;-78
2022/09/08 01:02:23;;;;;;;15.57;13.90;;;14.80;99.90;;;;;;5016083;28;20307;-78
2022/09/08 01:04:52;;;;;;;16.93;15.00;;;14.70;99.90;;;;;;5015268;28;20353;-78
2022/09/08 01:13:08;;;;;;;17.73;14.33;;;14.60;99.90;;;;;;5014442;28;20249;-78
2022/09/08 01:15:34;;;;;;;15.97;14.20;;;14.70;99.90;;;;;;5014781;28;20339;-78
2022/09/08 01:18:01;;;;;;;15.53;13.13;;;14.60;99.90;;;;;;5019586;28;20226;-78
2022/09/08 01:20:33;;;;;;;15.47;13.33;;;14.60;99.90;;;;;;5016745;28;20226;-79
2022/09/08 01:23:33;;;;;;;14.53;13.03;;;14.60;99.90;;;;;;5016661;28;20282;-79
2022/09/08 01:26:22;;;;;;;14.90;13.40;;;14.60;99.90;;;;;;5005405;28;20614;-78
2022/09/08 01:28:54;;;;;;;15.90;13.33;;;14.60;99.90;;;;;;5031078;28;20242;-79
2022/09/08 01:31:22;;;;;;;14.63;13.00;;;14.60;99.90;;;;;;5022071;28;20223;-79
2022/09/08 01:33:49;;;;;;;15.47;13.87;;;14.60;99.90;;;;;;5028952;28;20604;-78
2022/09/08 01:36:17;;;;;;;15.87;13.87;;;14.60;99.90;;;;;;5016966;28;20728;-78
2022/09/08 01:38:44;;;;;;;14.60;13.20;;;14.50;99.90;;;;;;5029817;28;20771;-78
2022/09/08 01:41:13;;;;;;;16.10;13.80;;;14.50;99.90;;;;;;5016539;28;20236;-77
2022/09/08 01:43:40;;;;;;;15.10;13.43;;;14.50;99.90;;;;;;5017063;28;20230;-76
2022/09/08 01:46:08;;;;;;;15.20;13.60;;;14.50;99.90;;;;;;5015427;28;20590;-78
2022/09/08 01:48:35;;;;;;;15.27;13.17;;;14.50;99.90;;;;;;5008218;28;20230;-77
2022/09/08 01:51:04;;;;;;;14.57;13.13;;;14.40;99.90;;;;;;5020482;28;22385;-78
2022/09/08 01:53:31;;;;;;;15.87;14.17;;;14.40;99.90;;;;;;5013562;28;20239;-78
2022/09/08 01:55:57;;;;;;;13.63;12.43;;;14.40;99.90;;;;;;5015797;28;20947;-79
2022/09/08 01:58:25;;;;;;;15.17;13.60;;;14.40;99.90;;;;;;5008418;28;20230;-77
2022/09/08 02:00:51;;;;;;;15.17;13.67;;;14.40;99.90;;;;;;5019991;28;20232;-77
2022/09/08 02:03:20;;;;;;;15.57;13.30;;;14.40;99.90;;;;;;5016875;28;20843;-77
2022/09/08 02:05:46;;;;;;;15.63;13.47;;;14.30;99.90;;;;;;5016234;28;20338;-77
2022/09/08 02:08:13;;;;;;;14.33;12.47;;;14.30;99.90;;;;;;5016565;28;20292;-77
2022/09/08 02:10:40;;;;;;;14.53;12.60;;;14.30;99.90;;;;;;5014597;28;20705;-77
2022/09/08 02:13:07;;;;;;;14.17;12.77;;;14.30;99.90;;;;;;5016375;28;20218;-77
2022/09/08 02:15:34;;;;;;;13.70;12.43;;;14.30;99.90;;;;;;5016095;28;20231;-78
2022/09/08 02:18:01;;;;;;;14.43;12.93;;;14.20;99.90;;;;;;5015875;28;20230;-78
2022/09/08 02:20:32;;;;;;;13.63;12.27;;;14.20;99.90;;;;;;5004106;28;20694;-78
2022/09/08 02:22:59;;;;;;;13.20;11.53;;;14.20;99.90;;;;;;5015619;28;20286;-77
2022/09/08 02:25:26;;;;;;;12.90;11.50;;;14.20;99.90;;;;;;5010449;28;20221;-78
2022/09/08 02:27:53;;;;;;;13.90;12.40;;;14.20;99.90;;;;;;5010840;28;20228;-77
2022/09/08 02:30:20;;;;;;;13.00;11.70;;;14.20;99.90;;;;;;5018263;28;21195;-78
2022/09/08 02:32:46;;;;;;;13.20;11.70;;;14.10;99.90;;;;;;5021785;28;20226;-80
2022/09/08 02:35:13;;;;;;;13.50;12.20;;;14.10;99.90;;;;;;5010397;28;20230;-77
2022/09/08 02:37:41;;;;;;;12.53;11.23;;;14.10;99.90;;;;;;5008796;28;20228;-76
2022/09/08 02:40:09;;;;;;;12.83;11.53;;;14.10;99.90;;;;;;5012132;28;20227;-76
2022/09/08 02:42:36;;;;;;;13.23;11.83;;;14.10;99.90;;;;;;5005598;28;20720;-76
2022/09/08 02:45:04;;;;;;;12.83;11.47;;;14.10;99.90;;;;;;5016803;28;20440;-75
2022/09/08 02:47:33;;;;;;;12.67;11.37;;;14.00;99.90;;;;;;5015618;28;20226;-77
2022/09/08 02:50:00;;;;;;;12.23;11.03;;;14.00;99.90;;;;;;5019693;28;20733;-77
2022/09/08 02:52:27;;;;;;;11.40;10.20;;;14.00;99.90;;;;;;5018935;28;20281;-74
2022/09/08 02:54:55;;;;;;;12.90;9.93;;;14.00;99.90;;;;;;5009894;28;20226;-75
2022/09/08 02:57:21;;;;;;;12.57;11.27;;;14.00;99.90;;;;;;5014799;28;20697;-76
2022/09/08 02:59:48;;;;;;;12.17;10.87;;;13.90;99.90;;;;;;5015777;28;20556;-76
2022/09/08 03:02:14;;;;;;;11.73;10.53;;;13.90;99.90;;;;;;5011542;28;20228;-77
2022/09/08 03:04:41;;;;;;;13.20;11.07;;;13.90;99.90;;;;;;5016741;28;20229;-78
2022/09/08 03:07:08;;;;;;;11.90;10.73;;;13.90;99.90;;;;;;5020408;28;20228;-76
2022/09/08 03:09:35;;;;;;;13.73;10.40;;;13.90;99.90;;;;;;5022070;28;20225;-77
2022/09/08 03:12:03;;;;;;;11.70;10.50;;;13.90;99.90;;;;;;5015897;28;20252;-76
2022/09/08 03:14:30;;;;;;;10.70;9.63;;;13.90;99.90;;;;;;5015100;28;20239;-76
2022/09/08 03:16:57;;;;;;;11.07;9.93;;;13.90;99.90;;;;;;5016254;28;20226;-77
2022/09/08 03:19:24;;;;;;;11.93;10.17;;;13.90;99.90;;;;;;5017857;28;20243;-76
2022/09/08 03:21:52;;;;;;;12.37;10.17;;;13.90;99.90;;;;;;5017973;28;20245;-76
2022/09/08 03:24:19;;;;;;;11.00;9.27;;;13.90;99.90;;;;;;5013714;28;20225;-77
2022/09/08 03:26:46;;;;;;;11.13;9.50;;;13.90;99.90;;;;;;5011903;28;20230;-77
2022/09/08 03:29:14;;;;;;;11.03;9.83;;;13.90;99.90;;;;;;5015538;28;20322;-78
2022/09/08 03:31:40;;;;;;;10.77;9.43;;;13.90;99.90;;;;;;5017620;28;20213;-78
2022/09/08 03:34:07;;;;;;;11.60;9.83;;;13.90;99.90;;;;;;5020241;28;20577;-77
2022/09/08 03:36:34;;;;;;;10.10;9.10;;;13.90;99.90;;;;;;5018718;28;20288;-78
2022/09/08 03:39:01;;;;;;;13.57;9.50;;;13.90;99.90;;;;;;5021071;28;20230;-77
2022/09/08 03:41:27;;;;;;;10.07;9.07;;;13.90;99.90;;;;;;5013107;28;20314;-76
2022/09/08 03:43:54;;;;;;;12.30;9.83;;;14.00;99.90;;;;;;5013422;28;20229;-76
2022/09/08 03:46:22;;;;;;;10.00;8.90;;;14.00;99.90;;;;;;5019076;28;20257;-77
2022/09/08 03:48:49;;;;;;;10.27;8.90;;;14.00;99.90;;;;;;5015135;28;20239;-76
2022/09/08 03:51:17;;;;;;;11.83;9.33;;;14.00;99.90;;;;;;5033363;28;20367;-79
2022/09/08 03:53:45;;;;;;;9.80;8.80;;;14.00;99.90;;;;;;5013173;28;20589;-79
2022/09/08 03:56:13;;;;;;;11.77;8.70;;;14.00;99.90;;;;;;5024958;28;20220;-83
2022/09/08 03:58:40;;;;;;;10.63;8.27;;;14.00;99.90;;;;;;5033404;28;20308;-83
2022/09/08 04:01:11;;;;;;;10.57;9.07;;;14.00;99.90;;;;;;5012093;28;20973;-82
2022/09/08 04:03:39;;;;;;;11.23;8.73;;;13.90;99.90;;;;;;5031146;28;20231;-82
2022/09/08 04:06:06;;;;;;;9.50;8.57;;;13.90;99.90;;;;;;5029607;28;20221;-82
2022/09/08 04:08:33;;;;;;;9.90;8.43;;;13.90;99.90;;;;;;5032778;28;20238;-81
2022/09/08 04:11:00;;;;;;;9.20;8.23;;;13.90;99.90;;;;;;5032654;28;20222;-83
2022/09/08 04:13:27;;;;;;;10.80;8.30;;;13.90;99.90;;;;;;5008030;28;20326;-83
2022/09/08 04:15:54;;;;;;;10.30;8.47;;;13.90;99.90;;;;;;5013497;28;20250;-82
2022/09/08 04:18:21;;;;;;;13.30;9.13;;;13.80;99.90;;;;;;5021803;28;20228;-83
2022/09/08 04:20:57;;;;;;;10.60;8.90;;;13.80;99.90;;;;;;5026605;28;20288;-82
2022/09/08 04:23:24;;;;;;;8.63;7.73;;;13.80;99.90;;;;;;5026571;28;20229;-82
2022/09/08 04:25:58;;;;;;;9.73;8.20;;;13.80;99.90;;;;;;5022854;28;20231;-83
2022/09/08 04:28:25;;;;;;;9.40;8.50;;;13.80;99.90;;;;;;5013157;28;20251;-81
2022/09/08 04:30:52;;;;;;;10.97;8.47;;;13.90;99.90;;;;;;5029141;28;20679;-82
2022/09/08 04:33:19;;;;;;;11.13;8.80;;;13.90;99.90;;;;;;5022803;28;20333;-79
2022/09/08 04:35:46;;;;;;;10.73;8.37;;;13.90;99.90;;;;;;5036438;28;20370;-82
2022/09/08 04:38:14;;;;;;;10.07;8.53;;;13.90;99.90;;;;;;5031638;28;20258;-81
2022/09/08 04:40:41;;;;;;;11.00;8.73;;;13.90;99.90;;;;;;5027007;28;20242;-81
2022/09/08 04:43:08;;;;;;;9.33;7.97;;;13.90;99.90;;;;;;5026204;28;20295;-81
2022/09/08 04:45:35;;;;;;;10.93;8.67;;;13.90;99.90;;;;;;5029430;28;20225;-82
2022/09/08 04:48:02;;;;;;;10.57;8.13;;;13.90;99.90;;;;;;5031010;28;20222;-81
2022/09/08 04:50:29;;;;;;;10.70;7.63;;;13.90;99.90;;;;;;5028128;28;20231;-81
2022/09/08 04:52:55;;;;;;;11.37;7.87;;;13.90;99.90;;;;;;5027637;28;20755;-81
2022/09/08 04:55:24;;;;;;;9.50;8.13;;;13.90;99.90;;;;;;5021673;28;20331;-81
2022/09/08 04:57:50;;;;;;;9.67;7.20;;;13.90;99.90;;;;;;5031052;28;20232;-81
2022/09/08 05:00:18;;;;;;;12.17;8.10;;;13.90;99.90;;;;;;5023893;28;20239;-82
2022/09/08 05:02:46;;;;;;;8.57;7.67;;;13.90;99.90;;;;;;5025650;28;20219;-81
2022/09/08 05:05:12;;;;;;;8.63;7.67;;;13.90;99.90;;;;;;5021749;28;20288;-80
2022/09/08 05:07:39;;;;;;;11.97;7.03;;;13.90;99.90;;;;;;5023895;28;20228;-80
2022/09/08 05:10:07;;;;;;;8.77;7.67;;;13.90;99.90;;;;;;5015329;28;20618;-81
2022/09/08 05:12:35;;;;;;;9.17;7.30;;;13.90;99.90;;;;;;5020270;28;20225;-82
2022/09/08 05:15:02;;;;;;;11.03;7.53;;;13.90;99.90;;;;;;5029426;28;20227;-81
2022/09/08 05:17:30;;;;;;;8.80;7.67;;;13.90;99.90;;;;;;5025263;28;20236;-82
2022/09/08 05:19:57;;;;;;;10.27;6.97;;;13.90;99.90;;;;;;5028742;28;20325;-82
2022/09/08 05:22:24;;;;;;;8.60;6.73;;;13.90;99.90;;;;;;5031305;28;21671;-82
2022/09/08 05:24:52;;;;;;;8.17;7.03;;;13.90;99.90;;;;;;5029621;28;20233;-81
2022/09/08 05:27:22;;;;;;;8.70;6.77;;;13.90;99.90;;;;;;5030863;28;20234;-81
2022/09/08 05:29:50;;;;;;;7.67;6.30;;;13.90;99.90;;;;;;5033361;28;20253;-81
2022/09/08 05:32:17;;;;;;;7.80;6.77;;;14.00;99.90;;;;;;5028249;28;20228;-81
2022/09/08 05:34:43;;;;;;;9.60;7.10;;;14.00;99.90;;;;;;5030925;28;20258;-82
2022/09/08 05:37:10;;;;;;;7.83;6.97;;;14.00;99.90;;;;;;5029368;28;20286;-81
2022/09/08 05:39:37;;;;;;;9.50;6.87;;;14.00;99.90;;;;;;5033632;28;20227;-82
2022/09/08 05:42:03;;;;;;;8.67;6.90;;;14.00;99.90;;;;;;5028518;28;20245;-81
2022/09/08 05:44:30;;;;;;;8.90;5.87;;;14.10;99.90;;;;;;5019336;28;20228;-82
2022/09/08 05:46:58;;;;;;;9.03;6.40;;;14.10;99.90;;;;;;5029799;28;20320;-82
2022/09/08 05:49:25;;;;;;;9.47;6.73;;;14.10;99.90;;;;;;5026911;28;20520;-82
2022/09/08 05:51:52;;;;;;;7.10;6.40;;;14.20;99.90;;;;;;5014799;28;20247;-82
2022/09/08 05:54:19;;;;;;;9.37;6.30;;;14.20;99.90;;;;;;5020187;28;20677;-82
2022/09/08 05:56:46;;;;;;;10.03;6.37;;;14.20;99.90;;;;;;5020385;28;20225;-82
2022/09/08 05:59:13;;;;;;;7.83;5.77;;;14.30;99.90;;;;;;5033170;28;20243;-81
2022/09/08 06:01:41;;;;;;;7.80;6.40;;;14.30;99.90;;;;;;5029118;28;20251;-82
2022/09/08 06:04:09;;;;;;;6.63;5.47;;;14.40;99.90;;;;;;5032607;28;20743;-82
2022/09/08 06:06:36;;;;;;;7.47;5.70;;;14.40;99.90;;;;;;5037718;28;20297;-82
2022/09/08 06:09:06;;;;;;;8.97;5.50;;;14.40;99.90;;;;;;5027656;28;20223;-81
2022/09/08 06:11:35;;;;;;;6.40;5.70;;;14.50;99.90;;;;;;5025241;28;20230;-81
2022/09/08 06:14:02;;;;;;;7.67;5.33;;;14.60;99.90;;;;;;5031553;28;20245;-81
2022/09/08 06:16:29;;;;;;;7.30;4.90;;;14.60;99.90;;;;;;5025648;28;20441;-82
2022/09/08 06:18:58;;;;;;;5.23;4.73;;;14.70;99.90;;;;;;5026909;28;20289;-82
2022/09/08 06:21:27;;;;;;;5.80;5.03;;;14.80;99.90;;;;;;5026767;28;20767;-82
2022/09/08 06:23:56;;;;;;;5.83;5.00;;;14.90;99.90;;;;;;5023916;28;20293;-81
2022/09/08 06:26:37;;;;;;;6.83;4.60;;;15.00;99.90;;;;;;5016833;28;20351;-81
2022/09/08 06:29:10;;;;;;;8.20;4.60;;;15.10;99.90;;;;;;5018501;28;20234;-82
2022/09/08 06:31:42;;;;;;;9.17;5.13;;;15.10;99.90;;;;;;5029269;28;20224;-82
2022/09/08 06:34:15;;;;;;;7.23;4.90;;;15.20;99.90;;;;;;5028899;28;20249;-82
2022/09/08 06:36:49;;;;;;;8.50;5.00;;;15.30;99.90;;;;;;5023280;28;20235;-81
2022/09/08 06:39:21;;;;;;;6.67;4.90;;;15.40;99.90;;;;;;5024156;28;20237;-82
2022/09/08 06:41:51;;;;;;;6.10;4.67;;;15.40;99.90;;;;;;5027792;28;20519;-81
2022/09/08 06:44:26;;;;;;;8.80;4.93;;;15.50;99.90;;;;;;5018674;28;20232;-82
2022/09/08 06:46:55;;;;;;;5.27;4.50;;;15.70;99.90;;;;;;5018853;28;20233;-81
2022/09/08 06:49:25;;;;;;;9.07;4.63;;;15.70;99.90;;;;;;5012350;28;20221;-81
2022/09/08 06:52:00;;;;;;;5.13;4.13;;;15.80;99.90;;;;;;5026615;28;20228;-81
2022/09/08 06:54:45;;;;;;;6.23;4.10;;;15.80;99.90;;;;;;5030358;28;20227;-81
2022/09/08 06:57:25;;;;;;;7.00;4.27;;;15.90;99.90;;;;;;5026853;28;20224;-79
2022/09/08 06:59:57;;;;;;;5.77;4.10;;;15.90;99.90;;;;;;5020896;28;20224;-82
2022/09/08 07:02:49;;;;;;;7.27;3.80;;;16.00;99.90;;;;;;5021648;28;20239;-81
2022/09/08 07:05:31;;;;;;;5.37;4.37;;;16.00;99.90;;;;;;5026121;28;20232;-81
2022/09/08 07:08:08;;;;;;;7.63;4.47;;;15.90;99.90;;;;;;5024043;28;20804;-81
2022/09/08 07:10:42;;;;;;;6.07;4.63;;;15.90;99.90;;;;;;5022872;28;20314;-81
2022/09/08 07:13:20;;;;;;;6.93;4.43;;;15.90;99.90;;;;;;5023664;28;20215;-82
2022/09/08 07:15:56;;;;;;;5.80;4.10;;;15.90;99.90;;;;;;5027117;28;20319;-81
2022/09/08 07:18:28;;;;;;;6.33;4.23;;;15.90;99.90;;;;;;5026951;28;20230;-81
2022/09/08 07:21:04;;;;;;;5.27;4.03;;;15.90;99.90;;;;;;5026553;28;20258;-81
2022/09/08 07:23:36;;;;;;;5.43;4.30;;;15.80;99.90;;;;;;5026077;28;20232;-81
2022/09/08 07:26:08;;;;;;;6.30;4.30;;;15.80;99.90;;;;;;5023867;28;20935;-81
2022/09/08 07:28:43;;;;;;;4.57;3.83;;;15.90;99.90;;;;;;5030231;28;20234;-81
2022/09/08 07:31:24;;;;;;;6.27;3.93;;;15.90;99.90;;;;;;5033517;28;20226;-81
2022/09/08 07:33:55;;;;;;;10.27;4.33;;;15.80;99.90;;;;;;5045090;28;20547;-82
2022/09/08 07:36:28;;;;;;;5.90;4.20;;;15.80;99.90;;;;;;5028170;28;20766;-81
2022/09/08 07:38:58;;;;;;;5.27;3.47;;;15.90;99.90;;;;;;5030180;28;20322;-81
2022/09/08 07:41:32;;;;;;;6.83;3.97;;;15.90;99.90;;;;;;5042694;28;20797;-81
2022/09/08 07:44:03;;;;;;;7.60;3.93;;;15.90;99.90;;;;;;5030446;28;20227;-81
2022/09/08 07:46:51;;;;;;;6.03;3.70;;;15.90;99.90;;;;;;5028346;28;20236;-81
2022/09/08 07:49:25;;;;;;;4.87;3.40;;;15.90;99.90;;;;;;5048764;28;20224;-81
2022/09/08 07:51:58;;;;;;;6.13;3.70;;;15.90;99.90;;;;;;5024793;28;21609;-82
2022/09/08 07:54:58;;;;;;;7.80;3.93;;;15.90;99.90;;;;;;5025332;28;20240;-81
2022/09/08 07:57:36;;;;;;;4.70;3.57;;;15.90;99.90;;;;;;5036009;28;20255;-81
2022/09/08 08:00:09;;;;;;;5.47;3.40;;;15.90;99.90;;;;;;5030010;28;20242;-81
2022/09/08 08:02:49;;;;;;;5.50;3.63;;;15.90;99.90;;;;;;5022236;28;20232;-81
2022/09/08 08:05:22;;;;;;;5.97;3.90;;;15.90;99.90;;;;;;5030026;28;20560;-81
2022/09/08 08:07:58;;;;;;;6.90;3.53;;;15.90;99.90;;;;;;5027539;28;20403;-82
2022/09/08 08:10:28;;;;;;;5.57;3.00;;;15.90;99.90;;;;;;5027715;28;20243;-81
2022/09/08 08:13:01;;;;;;;4.77;3.07;;;16.00;99.90;;;;;;5030024;28;20254;-81
2022/09/08 08:15:40;;;;;;;6.33;3.20;;;15.90;99.90;;;;;;5031412;28;20256;-81
2022/09/08 08:18:14;;;;;;;6.53;3.57;;;16.00;99.90;;;;;;5030217;28;20759;-81
2022/09/08 08:20:50;;;;;;;4.13;2.97;;;15.90;99.90;;;;;;5025841;28;20322;-81
2022/09/08 08:23:32;;;;;;;8.27;3.00;;;15.90;99.90;;;;;;5028707;28;20238;-81
2022/09/08 08:26:07;;;;;;;12.80;3.50;;;15.90;99.90;;;;;;5028887;28;20247;-81
2022/09/08 08:28:40;;;;;;;7.37;3.17;;;16.00;99.90;;;;;;5031809;28;20695;-80
2022/09/08 08:31:24;;;;;;;6.70;3.17;;;16.00;99.90;;;;;;5028612;28;20358;-80
2022/09/08 08:33:56;;;;;;;5.87;2.87;;;16.00;99.90;;;;;;5017921;28;20283;-81
2022/09/08 08:36:27;;;;;;;4.70;3.10;;;16.00;99.90;;;;;;5020678;28;20231;-81
2022/09/08 08:39:06;;;;;;;7.60;3.20;;;16.00;99.90;;;;;;5022581;28;20227;-81
2022/09/08 08:41:52;;;;;;;5.00;2.90;;;16.00;99.90;;;;;;5031250;28;20251;-81
2022/09/08 08:44:32;;;;;;;5.40;3.30;;;16.10;99.90;;;;;;5009102;28;20262;-81
2022/09/08 08:47:19;;;;;;;4.70;3.00;;;16.10;99.90;;;;;;5023573;28;20243;-81
2022/09/08 08:50:13;;;;;;;6.40;2.90;;;16.20;99.90;;;;;;5023587;28;20280;-81
2022/09/08 08:52:51;;;;;;;3.20;2.70;;;16.30;99.90;;;;;;5034399;28;20298;-81
2022/09/08 08:55:35;;;;;;;7.10;3.00;;;16.30;99.90;;;;;;5022662;28;20255;-81
2022/09/08 08:58:20;;;;;;;6.00;3.00;;;16.40;99.90;;;;;;5026602;28;20307;-81
2022/09/08 09:00:57;;;;;;;4.03;2.60;;;16.50;99.90;;;;;;5021732;28;20226;-82
2022/09/08 09:03:41;;;;;;;5.20;3.20;;;16.60;99.90;;;;;;5027427;28;20229;-84
2022/09/08 09:06:25;;;;;;;3.90;2.90;;;16.60;99.90;;;;;;5023876;28;20933;-90
2022/09/08 09:09:32;;;;;;;5.13;3.07;;;16.70;99.90;;;;;;5029505;28;20615;-84
2022/09/08 09:12:30;;;;;;;9.93;3.33;;;16.80;99.90;;;;;;5014742;28;20230;-85
2022/09/08 09:15:29;;;;;;;5.13;2.80;;;16.90;99.90;;;;;;4965372;28;20318;-85
2022/09/08 09:18:35;;;;;;;8.83;3.40;;;17.00;99.90;;;;;;5006955;28;20247;-84
2022/09/08 09:21:10;;;;;;;5.80;2.80;;;17.10;99.90;;;;;;5025114;28;20234;-83
2022/09/08 09:23:43;;;;;;;4.07;2.80;;;17.20;99.90;;;;;;5016427;28;20220;-87
2022/09/08 09:26:18;;;;;;;8.57;3.53;;;17.20;99.70;;;;;;5022816;28;20228;-87
2022/09/08 09:28:57;;;;;;;4.37;2.80;;;17.30;99.60;;;;;;5040441;28;20295;-87
2022/09/08 09:32:04;;;;;;;6.50;3.10;;;17.40;99.20;;;;;;5029962;28;20577;-84
2022/09/08 09:34:54;;;;;;;4.63;2.67;;;17.50;99.00;;;;;;5022664;28;20227;-85
2022/09/08 09:37:45;;;;;;;6.77;2.83;;;17.60;98.90;;;;;;5023190;28;20565;-87
2022/09/08 09:40:25;;;;;;;5.70;3.10;;;17.80;98.70;;;;;;4998030;28;20235;-83
2022/09/08 09:43:09;;;;;;;6.63;3.30;;;17.80;98.70;;;;;;5038030;28;20891;-89
2022/09/08 09:45:55;;;;;;;3.87;3.10;;;18.00;98.30;;;;;;5016673;28;20228;-83
2022/09/08 09:48:54;;;;;;;6.70;3.07;;;18.10;98.10;;;;;;5019910;28;20681;-84
2022/09/08 09:51:36;;;;;;;7.00;3.10;;;18.20;97.80;;;;;;5015846;28;20267;-85
2022/09/08 09:54:37;;;;;;;5.20;2.90;;;18.30;97.80;;;;;;5021963;28;20286;-84
2022/09/08 09:57:42;;;;;;;5.70;2.83;;;18.40;97.70;;;;;;5040897;28;20307;-83
2022/09/08 10:00:33;;;;;;;6.13;3.13;;;18.60;97.40;;;;;;5006897;28;20220;-84
2022/09/08 10:03:36;;;;;;;5.65;3.10;;;18.80;97.40;;;;;;5022759;28;20227;-85
2022/09/08 10:06:26;;;;;;;5.22;3.60;;;19.00;96.90;;;;;;5031871;28;20220;-85
2022/09/08 10:09:32;;;;;;;4.47;2.90;;;19.20;96.70;;;;;;5023249;28;20236;-84
2022/09/08 10:12:35;;;;;;;5.72;3.08;;;19.20;96.40;;;;;;5028882;28;20785;-87
2022/09/08 10:15:45;;;;;;;3.90;3.30;;;19.30;96.40;;;;;;5023025;28;20221;-87
2022/09/08 10:18:55;;;;;;;7.18;3.40;;;19.30;96.30;;;;;;5013348;28;20964;-84
2022/09/08 10:21:55;;;;;;;10.27;3.67;;;19.40;96.00;;;;;;5007285;28;20221;-85
2022/09/08 10:25:02;;;;;;;5.35;3.35;;;19.30;95.70;;;;;;5020036;28;20300;-83
2022/09/08 10:28:06;;;;;;;4.85;3.28;;;19.30;95.60;;;;;;5033499;28;20305;-83
2022/09/08 10:31:23;;;;;;;5.10;3.42;;;19.30;95.60;;;;;;5026637;28;20246;-84
2022/09/08 10:34:13;;;;;;;4.85;3.55;;;19.20;95.40;;;;;;4986937;28;20221;-90
2022/09/08 10:37:03;;;;;;;4.75;3.25;;;19.20;95.40;;;;;;5038805;28;20220;-85
2022/09/08 10:40:08;;;;;;;6.80;3.83;;;19.10;95.40;;;;;;5021579;28;20282;-88
2022/09/08 10:42:47;;;;;;;5.70;3.27;;;19.00;95.40;;;;;;5025831;28;20224;-88
2022/09/08 10:45:43;;;;;;;7.03;3.73;;;18.90;95.40;;;;;;5024712;28;20230;-86
2022/09/08 10:48:57;;;;;;;5.90;3.70;;;18.80;95.30;;;;;;5044251;28;20220;-85
2022/09/08 10:51:51;;;;;;;6.80;3.73;;;18.70;95.60;;;;;;4946927;28;20349;-83
2022/09/08 10:54:41;;;;;;;7.77;4.40;;;18.60;97.10;;;;;;4958809;28;20758;-83
2022/09/08 10:57:20;;;;;;;19.63;6.67;;;18.40;97.80;;;;;;5019081;28;20229;-84
2022/09/08 11:00:05;;;;;;;10.40;6.03;;;18.20;99.90;;;;;;5029124;28;20242;-85
2022/09/08 11:02:34;;;;;;;11.00;5.70;;;17.90;99.90;;;;;;5043487;28;20760;-85
2022/09/08 11:05:35;;;;;;;7.70;5.43;;;17.60;99.90;;;;;;5052009;28;20230;-86
2022/09/08 11:08:55;;;;;;;8.23;5.47;;;17.20;99.90;;;;;;5052341;28;20220;-85
2022/09/08 11:11:51;;;;;;;8.90;5.90;;;16.90;99.90;;;;;;5035784;28;20575;-86
2022/09/08 11:14:40;;;;;;;9.97;5.70;;;16.60;99.90;;;;;;5052233;28;20228;-86
2022/09/08 11:17:17;;;;;;;9.20;5.60;;;16.40;99.90;;;;;;4991334;28;20220;-85
2022/09/08 11:19:47;;;;;;;7.17;5.43;;;16.30;99.90;;;;;;5026504;28;20243;-88
2022/09/08 11:22:31;;;;;;;7.40;5.80;;;16.20;99.90;;;;;;5035065;28;20235;-88
2022/09/08 11:25:34;;;;;;;7.00;5.30;;;16.10;99.90;;;;;;5032461;28;20242;-87
2022/09/08 11:28:14;;;;;;;9.40;5.57;;;16.00;99.90;;;;;;5028202;28;20450;-87
2022/09/08 11:30:54;;;;;;;12.23;5.83;;;15.80;99.90;;;;;;5033403;28;20239;-85
2022/09/08 11:33:36;;;;;;;7.70;5.43;;;15.80;99.90;;;;;;5047358;28;20318;-87
2022/09/08 11:36:19;;;;;;;7.97;6.10;;;15.70;99.90;;;;;;5046020;28;20297;-86
2022/09/08 11:39:16;;;;;;;9.80;5.73;;;15.60;99.90;;;;;;5043942;28;20598;-88
2022/09/08 11:42:00;;;;;;;9.37;5.87;;;15.50;99.90;;;;;;5037841;28;20284;-87
2022/09/08 11:44:55;;;;;;;9.30;5.90;;;15.40;99.90;;;;;;5051155;28;20297;-85
2022/09/08 11:48:10;;;;;;;8.20;6.27;;;15.30;99.90;;;;;;5036270;28;20235;-85
2022/09/08 11:51:02;;;;;;;8.10;6.30;;;15.30;99.90;;;;;;4968117;28;20248;-87
2022/09/08 11:53:54;;;;;;;8.87;6.20;;;15.20;99.90;;;;;;5044293;28;20233;-86
2022/09/08 11:56:50;;;;;;;11.77;6.50;;;15.20;99.90;;;;;;5003994;28;20228;-87
2022/09/08 11:59:35;;;;;;;8.53;6.67;;;15.30;99.90;;;;;;5015762;28;20283;-86
2022/09/08 12:02:25;;;;;;;8.20;6.93;;;15.30;99.90;;;;;;5023976;28;20318;-84
2022/09/08 12:05:11;;;;;;;9.50;7.10;;;15.30;99.90;;;;;;5023169;28;20219;-84
2022/09/08 12:08:03;;;;;;;12.63;7.30;;;15.40;99.90;;;;;;5026046;28;20235;-85
2022/09/08 12:10:48;;;;;;;7.93;6.87;;;15.40;99.90;;;;;;5014529;28;20225;-83
2022/09/08 12:13:19;;;;;;;10.13;7.17;;;15.40;99.90;;;;;;5013795;28;20229;-84
2022/09/08 12:15:59;;;;;;;10.63;7.40;;;15.50;99.90;;;;;;5018905;28;20228;-84
2022/09/08 12:18:52;;;;;;;8.50;7.60;;;15.40;99.90;;;;;;5024300;28;20307;-84
2022/09/08 12:21:49;;;;;;;9.03;6.90;;;15.40;99.90;;;;;;5043632;28;20236;-83
2022/09/08 12:24:33;;;;;;;10.70;7.70;;;15.40;99.90;;;;;;5020065;28;20766;-83
2022/09/08 12:27:15;;;;;;;9.80;7.23;;;15.30;99.90;;;;;;5023069;28;20300;-84
2022/09/08 12:30:08;;;;;;;7.63;6.87;;;15.30;99.90;;;;;;5026507;28;20229;-83
2022/09/08 12:32:53;;;;;;;8.73;7.63;;;15.20;99.90;;;;;;5020415;28;20258;-83
2022/09/08 12:35:29;;;;;;;10.20;7.33;;;15.20;99.90;;;;;;5007337;28;20600;-84
2022/09/08 12:37:59;;;;;;;16.07;7.87;;;15.10;99.90;;;;;;5030629;28;20274;-84
2022/09/08 12:41:08;;;;;;;8.93;7.97;;;15.10;99.90;;;;;;5026256;28;20549;-84
2022/09/08 12:43:41;;;;;;;9.60;7.70;;;15.10;99.90;;;;;;4944492;28;20267;-84
2022/09/08 12:46:33;;;;;;;13.00;8.00;;;15.00;99.90;;;;;;5009663;28;20291;-84
2022/09/08 12:49:31;;;;;;;11.33;7.90;;;15.00;99.90;;;;;;5027812;28;20227;-83
2022/09/08 12:52:02;;;;;;;11.17;7.70;;;15.00;99.90;;;;;;5019881;28;20238;-84
2022/09/08 12:54:43;;;;;;;10.50;8.33;;;14.90;99.90;;;;;;5010215;28;20276;-83
2022/09/08 12:57:30;;;;;;;7.93;7.20;;;14.90;99.90;;;;;;5023536;28;20313;-84
2022/09/08 13:00:03;;;;;;;9.67;7.43;;;14.90;99.90;;;;;;5023763;28;20227;-83
2022/09/08 13:02:58;;;;;;;9.37;7.13;;;15.00;99.90;;;;;;5019802;28;20239;-84
2022/09/08 13:05:41;;;;;;;9.37;7.90;;;14.90;99.90;;;;;;5016275;28;20354;-84
2022/09/08 13:08:19;;;;;;;7.00;6.30;;;14.90;99.90;;;;;;5034969;28;20643;-84
2022/09/08 13:10:49;;;;;;;6.47;5.77;;;14.90;99.90;;;;;;5040915;28;20257;-84
2022/09/08 13:13:35;;;;;;;6.60;5.93;;;14.80;99.90;;;;;;5026932;28;20609;-84
2022/09/08 13:16:15;;;;;;;6.63;6.03;;;14.70;99.90;;;;;;5026883;28;20896;-84
2022/09/08 13:18:49;;;;;;;7.17;6.43;;;14.70;99.90;;;;;;5028514;28;20233;-83
2022/09/08 13:21:26;;;;;;;7.50;6.73;;;14.60;99.90;;;;;;5027014;28;20596;-84
2022/09/08 13:23:55;;;;;;;6.60;6.00;;;14.50;99.90;;;;;;5023109;28;20231;-84
2022/09/08 13:26:54;;;;;;;7.17;6.40;;;14.50;99.90;;;;;;5022385;28;20742;-84
2022/09/08 13:29:53;;;;;;;7.03;6.33;;;14.50;99.90;;;;;;5027954;28;20222;-84
2022/09/08 13:32:38;;;;;;;8.40;7.00;;;14.50;99.90;;;;;;5018363;28;20226;-84